Time;durP1;ratioP1;P1;durP2;ratioP2;P2;SDS_P1;SDS_P2;PMS_P1;PMS_P2;Temp;Humidity;BMP_temperature;BMP_pressure;BME280_temperature;BME280_humidity;BME280_pressure;Samples;Min_cycle;Max_cycle;Signal;HPM_P1;HPM_P2
2021/01/15 00:00:56;;;;;;;20.02;10.40;;;-0.70;99.90;;;;;;5071347;28;20028;-74
2021/01/15 00:03:22;;;;;;;17.85;10.43;;;-0.70;99.90;;;;;;5071779;28;20020;-74
2021/01/15 00:05:48;;;;;;;23.00;13.30;;;-0.70;99.90;;;;;;5071376;28;20024;-74
2021/01/15 00:08:13;;;;;;;26.02;13.35;;;-0.70;99.90;;;;;;5053624;28;20024;-74
2021/01/15 00:10:39;;;;;;;20.77;12.80;;;-0.70;99.90;;;;;;5036744;28;20059;-74
2021/01/15 00:13:05;;;;;;;20.10;12.75;;;-0.70;99.90;;;;;;5071515;28;20470;-74
2021/01/15 00:15:30;;;;;;;23.80;14.88;;;-0.70;99.90;;;;;;5071465;28;20522;-74
2021/01/15 00:17:56;;;;;;;23.65;14.43;;;-0.80;99.90;;;;;;5071732;28;20100;-74
2021/01/15 00:20:22;;;;;;;31.30;15.45;;;-0.80;99.90;;;;;;5071195;28;20407;-74
2021/01/15 00:22:48;;;;;;;24.92;14.57;;;-0.80;99.90;;;;;;5071096;28;20493;-74
2021/01/15 00:25:14;;;;;;;29.90;15.18;;;-0.90;99.90;;;;;;5071222;28;20029;-73
2021/01/15 00:27:40;;;;;;;26.13;15.85;;;-1.10;99.90;;;;;;5053235;28;20020;-74
2021/01/15 00:30:08;;;;;;;29.10;16.38;;;-1.20;99.90;;;;;;5071330;28;20559;-74
2021/01/15 00:32:34;;;;;;;30.52;16.52;;;-1.20;99.90;;;;;;5053364;28;20028;-74
2021/01/15 00:35:00;;;;;;;23.67;15.32;;;-1.20;99.90;;;;;;5053838;28;20024;-73
2021/01/15 00:37:25;;;;;;;27.23;15.25;;;-1.20;99.90;;;;;;5071229;28;20081;-74
2021/01/15 00:39:51;;;;;;;26.38;16.20;;;-1.30;99.90;;;;;;5071384;28;20032;-74
2021/01/15 00:42:17;;;;;;;25.25;14.70;;;-1.50;99.90;;;;;;5070849;28;20017;-74
2021/01/15 00:44:45;;;;;;;26.77;15.88;;;-1.30;99.90;;;;;;5053178;28;20023;-74
2021/01/15 00:47:13;;;;;;;36.35;16.98;;;-1.10;99.90;;;;;;5070962;28;20020;-74
2021/01/15 00:49:39;;;;;;;26.70;16.27;;;-1.10;99.90;;;;;;5053087;28;20029;-74
2021/01/15 00:52:05;;;;;;;28.15;15.75;;;-1.10;99.90;;;;;;5071113;28;20024;-74
2021/01/15 00:54:31;;;;;;;26.95;16.08;;;-1.10;99.90;;;;;;5070581;28;20040;-74
2021/01/15 00:56:58;;;;;;;26.92;15.52;;;-1.20;99.90;;;;;;5070998;28;20499;-74
2021/01/15 00:59:24;;;;;;;25.40;14.48;;;-1.00;99.90;;;;;;5070605;28;20033;-74
2021/01/15 01:01:49;;;;;;;24.30;15.00;;;-0.90;99.90;;;;;;5070863;28;20046;-74
2021/01/15 01:04:15;;;;;;;25.17;15.50;;;-1.10;99.90;;;;;;5070571;28;20067;-74
2021/01/15 01:06:41;;;;;;;22.75;14.50;;;-1.40;99.90;;;;;;5070769;28;20021;-74
2021/01/15 01:09:07;;;;;;;29.20;17.50;;;-1.30;99.90;;;;;;5070489;28;20036;-74
2021/01/15 01:11:33;;;;;;;27.15;16.13;;;-1.40;99.90;;;;;;5052966;28;20388;-73
2021/01/15 01:13:59;;;;;;;29.35;16.50;;;-1.40;99.90;;;;;;5070596;28;20036;-74
2021/01/15 01:16:26;;;;;;;27.85;17.52;;;-1.50;99.90;;;;;;5070778;28;20108;-74
2021/01/15 01:18:53;;;;;;;23.48;15.85;;;-1.70;99.90;;;;;;5052551;28;20407;-74
2021/01/15 01:21:20;;;;;;;26.95;17.85;;;-1.70;99.90;;;;;;5052680;28;20025;-73
2021/01/15 01:23:46;;;;;;;32.65;17.23;;;-1.60;99.90;;;;;;5070683;28;20032;-74
2021/01/15 01:26:12;;;;;;;28.13;17.10;;;-1.50;99.90;;;;;;5070611;28;20025;-73
2021/01/15 01:28:39;;;;;;;26.05;15.88;;;-1.50;99.90;;;;;;5070623;28;20021;-74
2021/01/15 01:31:05;;;;;;;27.80;14.38;;;-1.40;99.90;;;;;;5052278;28;20033;-74
2021/01/15 01:33:31;;;;;;;28.60;15.07;;;-1.50;99.90;;;;;;5070598;28;20025;-74
2021/01/15 01:35:57;;;;;;;33.33;16.60;;;-1.40;99.90;;;;;;5052603;28;20035;-74
2021/01/15 01:38:22;;;;;;;24.88;15.80;;;-1.50;99.90;;;;;;5070475;28;20066;-74
2021/01/15 01:40:48;;;;;;;31.38;17.65;;;-1.70;99.90;;;;;;5035482;28;20052;-74
2021/01/15 01:43:14;;;;;;;32.45;16.77;;;-1.70;99.90;;;;;;5035862;28;20035;-74
2021/01/15 01:45:40;;;;;;;36.90;18.73;;;-1.70;99.90;;;;;;5070086;28;20502;-74
2021/01/15 01:48:07;;;;;;;25.85;15.77;;;-1.60;99.90;;;;;;5052667;28;20051;-74
2021/01/15 01:50:34;;;;;;;31.10;17.98;;;-1.50;99.90;;;;;;5070204;28;20056;-74
2021/01/15 01:53:01;;;;;;;34.00;17.30;;;-1.50;99.90;;;;;;5070334;28;20024;-74
2021/01/15 01:55:28;;;;;;;25.25;15.48;;;-1.60;99.90;;;;;;5069920;28;20570;-74
2021/01/15 01:57:54;;;;;;;26.83;16.25;;;-1.60;99.90;;;;;;5052311;28;20372;-74
2021/01/15 02:00:19;;;;;;;21.92;13.75;;;-1.70;99.90;;;;;;5069769;28;20031;-74
2021/01/15 02:02:45;;;;;;;22.33;13.77;;;-2.00;99.90;;;;;;5052287;28;20024;-74
2021/01/15 02:05:12;;;;;;;27.85;14.68;;;-2.00;99.90;;;;;;5052408;28;20053;-74
2021/01/15 02:07:37;;;;;;;25.58;15.15;;;-1.90;99.90;;;;;;5069963;28;20024;-74
2021/01/15 02:10:17;;;;;;;24.58;15.13;;;-1.90;99.90;;;;;;5070329;28;20388;-74
2021/01/15 02:12:58;;;;;;;26.73;15.85;;;-1.90;99.90;;;;;;5070205;28;20020;-74
2021/01/15 02:15:38;;;;;;;26.40;14.47;;;-2.10;99.90;;;;;;5052593;28;20036;-74
2021/01/15 02:18:10;;;;;;;31.30;16.70;;;-2.10;99.90;;;;;;5052109;28;20282;-74
2021/01/15 02:20:55;;;;;;;25.98;15.43;;;-2.10;99.90;;;;;;5073740;28;20025;-74
2021/01/15 02:23:36;;;;;;;26.73;16.27;;;-2.20;99.90;;;;;;5073583;28;20032;-74
2021/01/15 02:26:04;;;;;;;21.52;12.20;;;-2.20;99.90;;;;;;5073554;28;20028;-74
2021/01/15 02:28:45;;;;;;;25.90;15.95;;;-2.20;99.90;;;;;;5055309;28;20046;-74
2021/01/15 02:31:49;;;;;;;25.15;15.73;;;-2.10;99.90;;;;;;5055712;28;20036;-73
2021/01/15 02:34:52;;;;;;;22.65;14.25;;;-2.00;99.90;;;;;;5073486;28;20032;-74
2021/01/15 02:37:20;;;;;;;23.63;13.82;;;-1.90;99.90;;;;;;5073276;28;20024;-74
2021/01/15 02:40:33;;;;;;;21.60;13.60;;;-1.80;99.90;;;;;;5073546;28;20032;-74
2021/01/15 02:43:01;;;;;;;26.20;14.95;;;-1.80;99.90;;;;;;4991231;28;20247;-74
2021/01/15 02:45:28;;;;;;;26.52;15.18;;;-1.80;99.90;;;;;;5064239;28;20055;-74
2021/01/15 02:47:56;;;;;;;26.10;14.57;;;-1.70;99.90;;;;;;5073013;28;20095;-73
2021/01/15 02:50:24;;;;;;;24.77;14.85;;;-1.80;99.90;;;;;;5073327;28;20096;-73
2021/01/15 02:52:50;;;;;;;28.60;14.88;;;-1.90;99.90;;;;;;5072910;28;20032;-74
2021/01/15 02:55:16;;;;;;;28.42;16.20;;;-1.90;99.90;;;;;;5072971;28;20236;-74
2021/01/15 02:57:43;;;;;;;36.30;16.38;;;-2.00;99.90;;;;;;5073027;28;20058;-74
2021/01/15 03:00:12;;;;;;;33.60;16.67;;;-2.10;99.90;;;;;;5073090;28;20078;-74
2021/01/15 03:03:00;;;;;;;32.80;16.50;;;-2.10;99.90;;;;;;5072867;28;20159;-74
2021/01/15 03:05:37;;;;;;;29.05;16.30;;;-2.10;99.90;;;;;;5072974;28;20027;-74
2021/01/15 03:08:04;;;;;;;39.50;16.58;;;-2.30;99.90;;;;;;5072908;28;20025;-74
2021/01/15 03:10:31;;;;;;;35.35;17.73;;;-2.30;99.90;;;;;;5054907;28;20376;-74
2021/01/15 03:12:57;;;;;;;71.88;17.95;;;-2.30;99.90;;;;;;5072857;28;20415;-74
2021/01/15 03:15:24;;;;;;;46.70;16.85;;;-2.30;99.90;;;;;;5072578;28;20021;-73
2021/01/15 03:17:52;;;;;;;60.25;17.15;;;-2.30;99.90;;;;;;5072823;28;20046;-74
2021/01/15 03:20:20;;;;;;;51.58;16.38;;;-2.40;99.90;;;;;;5072391;28;20021;-74
2021/01/15 03:22:47;;;;;;;41.33;18.58;;;-2.30;99.90;;;;;;5072697;28;20020;-74
2021/01/15 03:25:14;;;;;;;50.13;18.30;;;-2.50;99.90;;;;;;5072558;28;20036;-74
2021/01/15 03:27:50;;;;;;;47.00;19.02;;;-2.50;99.90;;;;;;5072523;28;20017;-73
2021/01/15 03:30:17;;;;;;;54.67;20.48;;;-2.70;99.90;;;;;;5053250;28;20086;-73
2021/01/15 03:32:43;;;;;;;64.13;19.17;;;-2.80;99.90;;;;;;5054547;28;20071;-74
2021/01/15 03:35:22;;;;;;;66.15;21.25;;;-3.00;99.90;;;;;;5072477;28;20496;-74
2021/01/15 03:37:56;;;;;;;47.60;18.95;;;-3.00;99.90;;;;;;5072429;28;20020;-74
2021/01/15 03:40:24;;;;;;;57.03;20.88;;;-3.00;99.90;;;;;;5054251;28;20032;-74
2021/01/15 03:42:50;;;;;;;81.18;22.00;;;-3.10;99.90;;;;;;5054314;28;20361;-73
2021/01/15 03:45:16;;;;;;;61.60;21.30;;;-3.10;99.90;;;;;;5072167;28;20103;-72
2021/01/15 03:47:42;;;;;;;60.78;20.55;;;-2.80;99.90;;;;;;5072583;28;20451;-74
2021/01/15 03:50:08;;;;;;;94.25;20.60;;;-3.00;99.90;;;;;;5072147;28;20595;-74
2021/01/15 03:52:34;;;;;;;73.03;22.02;;;-2.90;99.90;;;;;;5072146;28;20024;-73
2021/01/15 03:55:00;;;;;;;45.08;20.83;;;-2.80;99.90;;;;;;5071645;28;20032;-73
2021/01/15 03:57:25;;;;;;;49.50;19.58;;;-2.90;99.90;;;;;;5072068;28;20032;-74
2021/01/15 03:59:51;;;;;;;57.10;20.98;;;-2.80;99.90;;;;;;5071931;28;20101;-74
2021/01/15 04:02:17;;;;;;;43.35;20.73;;;-2.80;99.90;;;;;;5036966;28;20059;-74
2021/01/15 04:04:48;;;;;;;38.10;19.60;;;-2.70;99.90;;;;;;5071758;28;20380;-74
2021/01/15 04:07:15;;;;;;;69.97;19.30;;;-2.40;99.90;;;;;;5071613;28;20483;-73
2021/01/15 04:09:42;;;;;;;57.63;22.48;;;-2.60;99.90;;;;;;5054162;28;20082;-73
2021/01/15 04:12:07;;;;;;;47.40;21.45;;;-2.80;99.90;;;;;;5071484;28;20027;-74
2021/01/15 04:14:33;;;;;;;58.42;20.42;;;-2.70;99.90;;;;;;5071570;28;20028;-74
2021/01/15 04:16:59;;;;;;;44.95;20.45;;;-2.70;99.90;;;;;;5053399;28;20082;-74
2021/01/15 04:19:24;;;;;;;77.80;20.83;;;-2.70;99.90;;;;;;5071446;28;20021;-73
2021/01/15 04:21:54;;;;;;;44.85;22.15;;;-2.70;99.90;;;;;;5071207;28;20029;-74
2021/01/15 04:24:21;;;;;;;77.53;21.70;;;-2.50;99.90;;;;;;5071506;28;20116;-74
2021/01/15 04:26:51;;;;;;;48.53;21.30;;;-2.90;99.90;;;;;;5053287;28;20021;-74
2021/01/15 04:29:16;;;;;;;52.00;22.58;;;-2.80;99.90;;;;;;5071474;28;20360;-74
2021/01/15 04:31:42;;;;;;;46.60;23.20;;;-2.70;99.90;;;;;;5071122;28;20100;-74
2021/01/15 04:34:08;;;;;;;50.75;21.67;;;-2.70;99.90;;;;;;5071237;28;20028;-73
2021/01/15 04:36:37;;;;;;;81.00;22.55;;;-2.50;99.90;;;;;;5053283;28;20028;-74
2021/01/15 04:39:03;;;;;;;67.93;22.42;;;-2.50;99.90;;;;;;5053220;28;20025;-74
2021/01/15 04:41:31;;;;;;;58.80;21.60;;;-2.50;99.90;;;;;;5070888;28;20054;-73
2021/01/15 04:43:57;;;;;;;49.45;21.45;;;-2.50;99.90;;;;;;5052898;28;20025;-74
2021/01/15 04:46:24;;;;;;;68.15;20.58;;;-2.30;99.90;;;;;;5053201;28;20503;-74
2021/01/15 04:48:52;;;;;;;46.75;23.05;;;-2.30;99.90;;;;;;5052850;28;20111;-74
2021/01/15 04:51:20;;;;;;;49.10;22.38;;;-2.30;99.90;;;;;;5071061;28;20063;-73
2021/01/15 04:54:00;;;;;;;85.32;23.17;;;-2.50;99.90;;;;;;5052849;28;20029;-74
2021/01/15 04:56:50;;;;;;;107.47;24.08;;;-2.60;99.90;;;;;;5070991;28;20063;-74
2021/01/15 04:59:16;;;;;;;104.72;23.83;;;-2.60;99.90;;;;;;5070687;28;20536;-74
2021/01/15 05:01:44;;;;;;;78.25;23.50;;;-2.80;99.90;;;;;;5070818;28;20035;-73
2021/01/15 05:04:14;;;;;;;69.00;22.83;;;-2.80;99.90;;;;;;5036044;28;20016;-74
2021/01/15 05:06:50;;;;;;;50.17;23.05;;;-2.70;99.90;;;;;;5070957;28;20024;-74
2021/01/15 05:09:24;;;;;;;54.35;21.83;;;-2.80;99.90;;;;;;5070597;28;20488;-73
2021/01/15 05:11:51;;;;;;;96.72;21.42;;;-2.60;99.90;;;;;;5070769;28;20024;-74
2021/01/15 05:14:20;;;;;;;55.80;22.85;;;-2.70;99.90;;;;;;5070647;28;20024;-74
2021/01/15 05:16:49;;;;;;;50.85;25.45;;;-2.80;99.90;;;;;;5070790;28;20037;-74
2021/01/15 05:19:15;;;;;;;69.20;25.00;;;-2.80;99.90;;;;;;5070679;28;20021;-73
2021/01/15 05:21:42;;;;;;;101.13;28.13;;;-2.80;99.90;;;;;;5070779;28;20028;-74
2021/01/15 05:24:09;;;;;;;71.18;26.95;;;-2.90;99.90;;;;;;5070727;28;20064;-74
2021/01/15 05:26:38;;;;;;;59.58;24.27;;;-2.80;99.90;;;;;;5070732;28;20023;-73
2021/01/15 05:29:06;;;;;;;47.42;23.77;;;-2.70;99.90;;;;;;5070511;28;20471;-73
2021/01/15 05:31:55;;;;;;;47.72;21.25;;;-2.80;99.90;;;;;;5070873;28;20383;-74
2021/01/15 05:34:26;;;;;;;38.55;20.23;;;-2.70;99.90;;;;;;5053093;28;20032;-74
2021/01/15 05:36:53;;;;;;;63.53;21.65;;;-2.70;99.90;;;;;;5053163;28;20029;-74
2021/01/15 05:39:24;;;;;;;44.45;21.98;;;-2.60;99.90;;;;;;5070793;28;20036;-74
2021/01/15 05:41:58;;;;;;;39.40;20.13;;;-2.50;99.90;;;;;;5052817;28;20039;-74
2021/01/15 05:44:26;;;;;;;35.88;20.90;;;-2.40;99.90;;;;;;5052767;28;20388;-74
2021/01/15 05:46:52;;;;;;;42.55;22.80;;;-2.40;99.90;;;;;;5070648;28;20130;-74
2021/01/15 05:49:18;;;;;;;42.22;22.35;;;-2.50;99.90;;;;;;5070696;28;20020;-74
2021/01/15 05:51:44;;;;;;;41.72;22.38;;;-2.70;99.90;;;;;;5070517;28;20032;-74
2021/01/15 05:54:11;;;;;;;50.00;23.05;;;-2.50;99.90;;;;;;5054394;28;20028;-74
2021/01/15 05:56:48;;;;;;;52.30;22.08;;;-2.50;99.90;;;;;;5071218;28;20052;-74
2021/01/15 05:59:16;;;;;;;72.18;23.83;;;-2.40;99.90;;;;;;5055734;28;20092;-74
2021/01/15 06:01:44;;;;;;;52.22;23.88;;;-2.40;99.90;;;;;;5073551;28;20028;-74
2021/01/15 06:04:12;;;;;;;47.15;20.60;;;-2.60;99.90;;;;;;5039225;28;20020;-74
2021/01/15 06:06:40;;;;;;;64.45;23.55;;;-2.50;99.90;;;;;;5073701;28;20079;-74
2021/01/15 06:09:07;;;;;;;58.95;22.67;;;-2.60;99.90;;;;;;5073781;28;20020;-73
2021/01/15 06:11:38;;;;;;;56.22;21.45;;;-2.60;99.90;;;;;;5073546;28;20044;-74
2021/01/15 06:14:22;;;;;;;100.47;23.33;;;-2.50;99.90;;;;;;5073791;28;20020;-74
2021/01/15 06:16:48;;;;;;;67.53;21.17;;;-2.70;99.90;;;;;;5073953;28;20036;-74
2021/01/15 06:19:14;;;;;;;57.03;23.25;;;-2.70;99.90;;;;;;5073800;28;20034;-74
2021/01/15 06:21:52;;;;;;;119.50;25.20;;;-2.60;99.90;;;;;;5073196;28;20558;-74
2021/01/15 06:24:21;;;;;;;70.38;20.63;;;-2.70;99.90;;;;;;5073489;28;20012;-74
2021/01/15 06:27:03;;;;;;;44.25;21.40;;;-2.70;99.90;;;;;;5073480;28;20025;-74
2021/01/15 06:29:42;;;;;;;125.05;23.98;;;-2.70;99.90;;;;;;5055966;28;20024;-74
2021/01/15 06:32:09;;;;;;;58.15;22.63;;;-2.90;99.90;;;;;;5055575;28;20040;-74
2021/01/15 06:34:46;;;;;;;51.03;20.13;;;-2.90;99.90;;;;;;5073612;28;20021;-74
2021/01/15 06:37:18;;;;;;;45.92;20.83;;;-2.80;99.90;;;;;;5073350;28;20173;-73
2021/01/15 06:40:10;;;;;;;65.55;21.75;;;-3.00;99.90;;;;;;5073535;28;20102;-74
2021/01/15 06:42:47;;;;;;;42.05;21.17;;;-3.00;99.90;;;;;;5073048;28;20040;-74
2021/01/15 06:45:14;;;;;;;49.35;22.77;;;-3.00;99.90;;;;;;5073137;28;20472;-73
2021/01/15 06:47:42;;;;;;;51.22;23.00;;;-2.80;99.90;;;;;;5072566;28;20020;-73
2021/01/15 06:50:14;;;;;;;60.47;21.88;;;-2.80;99.90;;;;;;5073025;28;20119;-74
2021/01/15 06:52:45;;;;;;;79.10;21.05;;;-2.70;99.90;;;;;;5055037;28;20112;-74
2021/01/15 06:55:14;;;;;;;59.70;21.10;;;-2.70;99.90;;;;;;5072801;28;20052;-74
2021/01/15 06:57:48;;;;;;;38.42;19.73;;;-3.00;99.90;;;;;;5072834;28;20032;-74
2021/01/15 07:00:21;;;;;;;50.15;21.85;;;-3.00;99.90;;;;;;5072810;28;20383;-74
2021/01/15 07:03:25;;;;;;;71.88;20.42;;;-2.70;99.90;;;;;;5073107;28;20032;-74
2021/01/15 07:05:53;;;;;;;43.60;21.00;;;-2.70;99.90;;;;;;4987706;28;20034;-73
2021/01/15 07:08:18;;;;;;;58.47;21.33;;;-2.90;99.90;;;;;;5037112;28;20512;-74
2021/01/15 07:10:46;;;;;;;39.20;19.52;;;-3.10;99.90;;;;;;5052953;28;20025;-74
2021/01/15 07:13:21;;;;;;;74.22;22.35;;;-3.00;99.90;;;;;;5052734;28;20104;-74
2021/01/15 07:15:53;;;;;;;46.17;21.25;;;-3.00;99.90;;;;;;5052991;28;20025;-74
2021/01/15 07:18:33;;;;;;;51.13;22.55;;;-3.10;99.90;;;;;;5052424;28;20127;-74
2021/01/15 07:21:07;;;;;;;62.97;22.02;;;-3.00;99.90;;;;;;5054003;28;20115;-74
2021/01/15 07:23:44;;;;;;;42.88;21.08;;;-3.20;99.90;;;;;;5052215;28;20025;-73
2021/01/15 07:26:13;;;;;;;46.60;21.85;;;-3.30;99.90;;;;;;5052552;28;20032;-73
2021/01/15 07:28:40;;;;;;;43.20;22.65;;;-3.20;99.90;;;;;;5052600;28;20013;-74
2021/01/15 07:31:07;;;;;;;69.38;25.77;;;-3.00;99.90;;;;;;5052543;28;20032;-74
2021/01/15 07:33:36;;;;;;;51.78;24.98;;;-3.10;99.90;;;;;;5052350;28;20396;-74
2021/01/15 07:36:03;;;;;;;53.25;24.65;;;-3.30;99.90;;;;;;5052294;28;20396;-74
2021/01/15 07:38:29;;;;;;;46.95;23.35;;;-3.50;99.90;;;;;;5050946;28;20055;-74
2021/01/15 07:40:54;;;;;;;44.92;22.55;;;-3.30;99.90;;;;;;5070046;28;20025;-75
2021/01/15 07:43:28;;;;;;;48.40;23.80;;;-3.30;99.90;;;;;;5072262;28;20078;-72
2021/01/15 07:45:55;;;;;;;43.95;24.15;;;-3.10;99.90;;;;;;5049730;28;20104;-71
2021/01/15 07:48:21;;;;;;;44.08;22.17;;;-3.00;99.90;;;;;;5054896;28;20439;-72
2021/01/15 07:50:48;;;;;;;46.40;21.45;;;-2.90;99.90;;;;;;5053787;28;20122;-72
2021/01/15 07:53:26;;;;;;;52.63;24.65;;;-2.80;99.90;;;;;;5057388;28;20037;-72
2021/01/15 07:55:57;;;;;;;137.27;57.22;;;-2.80;99.90;;;;;;5049840;28;20068;-72
2021/01/15 07:58:37;;;;;;;54.58;26.77;;;-2.90;99.90;;;;;;5055475;28;20056;-72
2021/01/15 08:01:17;;;;;;;49.78;22.35;;;-3.00;99.90;;;;;;5055650;28;20071;-72
2021/01/15 08:03:56;;;;;;;43.75;21.83;;;-3.00;99.90;;;;;;5043440;28;20136;-72
2021/01/15 08:06:23;;;;;;;37.00;19.27;;;-2.90;99.90;;;;;;5062848;28;20032;-72
2021/01/15 08:08:59;;;;;;;45.13;25.15;;;-2.70;99.90;;;;;;5050197;28;20094;-72
2021/01/15 08:11:25;;;;;;;51.83;24.05;;;-2.70;99.90;;;;;;5063781;28;20040;-72
2021/01/15 08:14:16;;;;;;;44.25;21.23;;;-2.70;99.90;;;;;;5065379;28;20412;-72
2021/01/15 08:16:46;;;;;;;54.97;22.65;;;-3.10;99.90;;;;;;5059142;28;20025;-72
2021/01/15 08:19:17;;;;;;;39.97;21.85;;;-3.00;99.90;;;;;;5066321;28;20605;-73
2021/01/15 08:21:45;;;;;;;65.93;37.45;;;-2.90;99.90;;;;;;5069235;28;20032;-73
2021/01/15 08:24:12;;;;;;;43.38;24.13;;;-2.60;99.90;;;;;;5069792;28;20016;-73
2021/01/15 08:26:49;;;;;;;41.22;22.80;;;-2.50;99.90;;;;;;5069550;28;20608;-73
2021/01/15 08:29:15;;;;;;;40.58;20.17;;;-2.40;99.90;;;;;;5068958;28;20135;-73
2021/01/15 08:31:41;;;;;;;37.38;20.45;;;-2.50;99.90;;;;;;5069488;28;20028;-73
2021/01/15 08:34:12;;;;;;;50.10;23.52;;;-2.50;99.90;;;;;;5068952;28;20028;-73
2021/01/15 08:36:50;;;;;;;41.80;21.05;;;-2.60;99.90;;;;;;5069646;28;20598;-72
2021/01/15 08:39:16;;;;;;;85.78;40.97;;;-2.70;99.90;;;;;;5069175;28;20044;-72
2021/01/15 08:41:43;;;;;;;64.32;28.58;;;-2.70;99.90;;;;;;5069594;28;20028;-73
2021/01/15 08:44:14;;;;;;;45.80;23.00;;;-2.70;99.90;;;;;;5068773;28;20025;-72
2021/01/15 08:46:40;;;;;;;40.75;22.63;;;-2.60;99.90;;;;;;5067468;28;20020;-73
2021/01/15 08:49:09;;;;;;;40.97;22.58;;;-2.50;99.90;;;;;;5034968;28;20028;-73
2021/01/15 08:51:38;;;;;;;48.42;21.05;;;-2.50;99.90;;;;;;5050993;28;20028;-73
2021/01/15 08:54:06;;;;;;;37.90;19.45;;;-2.40;99.90;;;;;;5068808;28;20040;-73
2021/01/15 08:56:43;;;;;;;38.63;20.90;;;-2.50;99.90;;;;;;5069280;28;20033;-73
2021/01/15 08:59:13;;;;;;;36.17;19.50;;;-2.50;99.90;;;;;;5069293;28;20028;-73
2021/01/15 09:01:41;;;;;;;44.50;21.20;;;-2.60;99.90;;;;;;5068950;28;20087;-72
2021/01/15 09:04:12;;;;;;;41.75;23.13;;;-2.70;99.90;;;;;;5051491;28;20029;-73
2021/01/15 09:06:39;;;;;;;45.55;21.08;;;-2.70;99.90;;;;;;5069329;28;20024;-73
2021/01/15 09:09:10;;;;;;;43.00;23.20;;;-2.60;99.90;;;;;;5051360;28;20091;-73
2021/01/15 09:11:38;;;;;;;41.20;21.17;;;-2.50;99.90;;;;;;5051432;28;20032;-73
2021/01/15 09:14:06;;;;;;;45.88;24.63;;;-2.30;99.90;;;;;;5050880;28;20039;-73
2021/01/15 09:16:33;;;;;;;38.83;19.77;;;-2.10;99.90;;;;;;5051570;28;20109;-72
2021/01/15 09:19:08;;;;;;;36.05;18.77;;;-2.20;99.90;;;;;;5068995;28;20325;-73
2021/01/15 09:21:44;;;;;;;42.35;19.20;;;-2.20;99.90;;;;;;5069651;28;20035;-72
2021/01/15 09:24:10;;;;;;;32.70;18.38;;;-2.10;99.90;;;;;;5051103;28;20044;-73
2021/01/15 09:26:36;;;;;;;79.50;30.42;;;-2.10;99.90;;;;;;5070314;28;20056;-73
2021/01/15 09:29:01;;;;;;;64.43;29.33;;;-2.10;99.90;;;;;;5071124;28;20102;-72
2021/01/15 09:31:27;;;;;;;29.05;17.35;;;-2.10;99.90;;;;;;5073039;28;20479;-73
2021/01/15 09:33:53;;;;;;;28.77;16.73;;;-1.90;99.90;;;;;;5073501;28;20749;-73
2021/01/15 09:36:24;;;;;;;35.13;17.15;;;-2.00;98.30;;;;;;5054578;28;20032;-72
2021/01/15 09:38:51;;;;;;;35.00;18.00;;;-2.20;99.90;;;;;;5073144;28;20091;-73
2021/01/15 09:41:17;;;;;;;32.20;18.10;;;-2.30;99.90;;;;;;5054461;28;20051;-73
2021/01/15 09:43:43;;;;;;;42.85;23.90;;;-2.30;99.90;;;;;;5073324;28;20033;-73
2021/01/15 09:46:28;;;;;;;37.17;21.38;;;-2.00;99.90;;;;;;5072658;28;20025;-73
2021/01/15 09:48:56;;;;;;;39.10;21.65;;;-1.80;99.90;;;;;;5054949;28;20024;-72
2021/01/15 09:51:24;;;;;;;36.55;21.60;;;-1.80;99.00;;;;;;5072483;28;20047;-73
2021/01/15 09:53:50;;;;;;;30.90;18.70;;;-1.70;99.30;;;;;;5054835;28;20024;-72
2021/01/15 09:56:25;;;;;;;27.52;16.10;;;-1.60;98.20;;;;;;5072574;28;20043;-73
2021/01/15 09:58:52;;;;;;;26.80;15.77;;;-1.40;98.90;;;;;;5054511;28;20031;-73
2021/01/15 10:01:18;;;;;;;28.02;15.23;;;-1.30;96.10;;;;;;5072253;28;20480;-73
2021/01/15 10:03:44;;;;;;;36.17;18.85;;;-1.10;96.30;;;;;;5054563;28;20043;-72
2021/01/15 10:06:16;;;;;;;28.45;16.50;;;-0.60;96.30;;;;;;5072669;28;20016;-73
2021/01/15 10:08:43;;;;;;;23.92;14.18;;;0.10;94.00;;;;;;5072298;28;20023;-73
2021/01/15 10:11:17;;;;;;;12.90;9.32;;;0.80;91.90;;;;;;5072644;28;20511;-71
2021/01/15 10:13:43;;;;;;;18.25;9.90;;;1.70;89.20;;;;;;5072465;28;20055;-73
2021/01/15 10:16:09;;;;;;;15.75;10.15;;;2.10;82.50;;;;;;5037256;28;20028;-73
2021/01/15 10:18:34;;;;;;;16.85;10.90;;;2.60;81.60;;;;;;5054539;28;20353;-73
2021/01/15 10:21:00;;;;;;;20.80;13.15;;;3.60;78.40;;;;;;5071621;28;20031;-73
2021/01/15 10:23:26;;;;;;;14.13;11.10;;;4.70;73.80;;;;;;5072052;28;20128;-73
2021/01/15 10:25:51;;;;;;;17.00;10.93;;;5.30;68.70;;;;;;5071731;28;20388;-74
2021/01/15 10:28:18;;;;;;;18.15;9.50;;;5.70;65.70;;;;;;5072028;28;20024;-74
2021/01/15 10:30:47;;;;;;;15.05;9.40;;;5.70;65.80;;;;;;5072270;28;20025;-73
2021/01/15 10:33:13;;;;;;;12.57;8.68;;;6.20;63.70;;;;;;5071879;28;20087;-73
2021/01/15 10:35:39;;;;;;;15.60;10.73;;;6.80;61.70;;;;;;5054247;28;20029;-73
2021/01/15 10:38:05;;;;;;;9.93;7.72;;;6.80;61.80;;;;;;5071694;28;20023;-73
2021/01/15 10:40:31;;;;;;;13.85;8.40;;;6.60;60.40;;;;;;5071239;28;20020;-73
2021/01/15 10:42:57;;;;;;;11.93;7.78;;;7.20;61.10;;;;;;5070320;28;20078;-73
2021/01/15 10:45:23;;;;;;;13.25;8.32;;;7.50;57.50;;;;;;5071857;28;20025;-73
2021/01/15 10:47:49;;;;;;;13.48;9.15;;;7.40;57.80;;;;;;5053508;28;20563;-73
2021/01/15 10:50:17;;;;;;;12.65;8.70;;;7.10;59.20;;;;;;5067018;28;20103;-74
2021/01/15 10:52:50;;;;;;;10.13;7.82;;;8.00;59.30;;;;;;5072104;28;20028;-73
2021/01/15 10:55:18;;;;;;;13.40;7.47;;;8.80;56.20;;;;;;5070713;28;20036;-73
2021/01/15 10:57:44;;;;;;;11.52;8.30;;;8.70;54.90;;;;;;5071843;28;20345;-74
2021/01/15 11:00:12;;;;;;;10.15;8.05;;;8.90;54.80;;;;;;5070483;28;20024;-73
2021/01/15 11:02:39;;;;;;;11.30;7.72;;;7.90;55.20;;;;;;5071852;28;20021;-73
2021/01/15 11:05:07;;;;;;;13.90;7.78;;;8.40;56.90;;;;;;5070939;28;20511;-74
2021/01/15 11:07:32;;;;;;;13.13;7.88;;;9.10;53.50;;;;;;5071303;28;20029;-74
2021/01/15 11:09:58;;;;;;;13.25;8.43;;;9.00;53.10;;;;;;5071468;28;20308;-74
2021/01/15 11:12:24;;;;;;;11.73;8.18;;;8.60;53.90;;;;;;5070682;28;20100;-73
2021/01/15 11:14:49;;;;;;;11.75;7.43;;;8.80;53.50;;;;;;5071669;28;20059;-73
2021/01/15 11:17:15;;;;;;;10.77;8.32;;;9.20;52.50;;;;;;5070868;28;20048;-73
2021/01/15 11:19:41;;;;;;;8.85;6.68;;;9.50;52.00;;;;;;5071546;28;20100;-73
2021/01/15 11:22:07;;;;;;;10.85;7.53;;;9.90;51.60;;;;;;5070372;28;20025;-73
2021/01/15 11:24:32;;;;;;;11.98;7.90;;;10.00;50.50;;;;;;5071563;28;20040;-73
2021/01/15 11:27:00;;;;;;;11.90;6.85;;;9.90;50.30;;;;;;5071402;28;20101;-73
2021/01/15 11:29:26;;;;;;;9.52;7.57;;;9.70;51.00;;;;;;5071066;28;20096;-73
2021/01/15 11:31:52;;;;;;;11.32;7.53;;;10.20;51.70;;;;;;5071560;28;20035;-74
2021/01/15 11:34:20;;;;;;;11.55;8.57;;;10.50;49.30;;;;;;5070455;28;20051;-74
2021/01/15 11:36:49;;;;;;;9.13;7.05;;;10.40;49.80;;;;;;5069712;28;20029;-73
2021/01/15 11:39:15;;;;;;;9.80;7.60;;;10.30;51.30;;;;;;5069249;28;20028;-73
2021/01/15 11:41:42;;;;;;;16.08;7.70;;;10.90;49.30;;;;;;5036052;28;20283;-73
2021/01/15 11:44:09;;;;;;;10.93;7.25;;;11.00;48.90;;;;;;5050766;28;20032;-74
2021/01/15 11:46:36;;;;;;;7.90;5.38;;;10.90;48.40;;;;;;5068004;28;20040;-74
2021/01/15 11:49:02;;;;;;;9.07;5.78;;;11.00;48.20;;;;;;5070968;28;20016;-74
2021/01/15 11:51:28;;;;;;;10.98;6.32;;;11.00;47.70;;;;;;5068204;28;20094;-73
2021/01/15 11:53:55;;;;;;;8.77;6.53;;;10.30;48.20;;;;;;5068214;28;20017;-73
2021/01/15 11:56:22;;;;;;;7.68;5.90;;;10.70;49.10;;;;;;5069539;28;20399;-73
2021/01/15 11:58:47;;;;;;;7.95;5.47;;;11.30;47.30;;;;;;5070740;28;20024;-74
2021/01/15 12:01:15;;;;;;;8.60;6.15;;;11.50;47.00;;;;;;5051694;28;20387;-74
2021/01/15 12:03:41;;;;;;;10.63;6.07;;;11.40;46.70;;;;;;5070484;28;20103;-74
2021/01/15 12:06:07;;;;;;;11.27;6.95;;;11.20;47.50;;;;;;5069858;28;20116;-74
2021/01/15 12:08:33;;;;;;;7.95;5.93;;;11.10;47.30;;;;;;5070142;28;20368;-73
2021/01/15 12:11:02;;;;;;;12.68;6.85;;;11.20;46.80;;;;;;5070021;28;20033;-73
2021/01/15 12:13:28;;;;;;;10.00;7.72;;;10.80;46.90;;;;;;5052051;28;20032;-73
2021/01/15 12:15:56;;;;;;;10.40;7.35;;;9.70;49.30;;;;;;5069834;28;20426;-74
2021/01/15 12:18:22;;;;;;;7.00;5.03;;;9.30;51.50;;;;;;5069882;28;20055;-73
2021/01/15 12:20:49;;;;;;;11.40;6.47;;;9.40;48.90;;;;;;5047345;28;20029;-73
2021/01/15 12:23:16;;;;;;;11.27;6.93;;;9.60;48.90;;;;;;5035431;28;20021;-73
2021/01/15 12:25:42;;;;;;;8.48;5.95;;;9.90;48.50;;;;;;5069458;28;20025;-73
2021/01/15 12:28:09;;;;;;;7.68;5.68;;;10.20;48.50;;;;;;5069784;28;20016;-74
2021/01/15 12:30:35;;;;;;;9.95;5.97;;;10.20;47.90;;;;;;5051522;28;20043;-73
2021/01/15 12:33:13;;;;;;;9.10;6.90;;;10.40;47.50;;;;;;5069589;28;20021;-73
2021/01/15 12:35:39;;;;;;;10.52;6.13;;;9.90;48.30;;;;;;5069225;28;20024;-74
2021/01/15 12:38:10;;;;;;;9.32;6.55;;;9.00;50.10;;;;;;5069649;28;20059;-73
2021/01/15 12:40:36;;;;;;;12.60;6.68;;;8.00;50.90;;;;;;5069040;28;20472;-73